Time;durP1;ratioP1;P1;durP2;ratioP2;P2;SDS_P1;SDS_P2;PMS_P1;PMS_P2;Temp;Humidity;BMP_temperature;BMP_pressure;BME280_temperature;BME280_humidity;BME280_pressure;Samples;Min_cycle;Max_cycle;Signal;HPM_P1;HPM_P2
2022/07/19 00:00:46;;;;;;;4.38;2.70;;;;;;;;;;5075327;28;20214;-46
2022/07/19 00:03:14;;;;;;;4.65;2.85;;;;;;;;;;5076186;28;20215;-46
2022/07/19 00:05:41;;;;;;;5.28;2.88;;;;;;;;;;5075318;28;20661;-46
2022/07/19 00:08:09;;;;;;;4.55;2.40;;;;;;;;;;5075197;28;20294;-47
2022/07/19 00:10:36;;;;;;;7.95;2.70;;;;;;;;;;5075424;28;20204;-47
2022/07/19 00:13:03;;;;;;;4.97;2.90;;;;;;;;;;5075249;28;20210;-47
2022/07/19 00:15:30;;;;;;;5.57;2.80;;;;;;;;;;5075018;28;20264;-48
2022/07/19 00:17:57;;;;;;;4.78;2.78;;;;;;;;;;5075246;28;20200;-49
2022/07/19 00:20:24;;;;;;;6.10;2.47;;;;;;;;;;5075159;28;20292;-46
2022/07/19 00:22:51;;;;;;;4.15;3.08;;;;;;;;;;5075033;28;20207;-46
2022/07/19 00:25:18;;;;;;;5.30;2.85;;;;;;;;;;5073739;28;20202;-47
2022/07/19 00:27:45;;;;;;;4.40;2.50;;;;;;;;;;5074811;28;20211;-47
2022/07/19 00:30:13;;;;;;;5.05;2.83;;;;;;;;;;5074878;28;20699;-46
2022/07/19 00:32:40;;;;;;;5.32;3.40;;;;;;;;;;5075030;28;20220;-47
2022/07/19 00:35:08;;;;;;;7.97;3.33;;;;;;;;;;5074891;28;20258;-48
2022/07/19 00:37:34;;;;;;;6.10;3.00;;;;;;;;;;5075096;28;20222;-46
2022/07/19 00:40:02;;;;;;;6.22;3.05;;;;;;;;;;5075034;28;20204;-46
2022/07/19 00:42:29;;;;;;;8.88;3.40;;;;;;;;;;5075037;28;20218;-46
2022/07/19 00:44:56;;;;;;;4.32;3.53;;;;;;;;;;5074832;28;20202;-46
2022/07/19 00:47:24;;;;;;;6.80;3.22;;;;;;;;;;5075045;28;20199;-46
2022/07/19 00:49:51;;;;;;;5.40;3.30;;;;;;;;;;5074649;28;20206;-46
2022/07/19 00:52:19;;;;;;;7.10;3.58;;;;;;;;;;5075018;28;20213;-46
2022/07/19 00:54:46;;;;;;;6.47;3.75;;;;;;;;;;5073466;28;20669;-46
2022/07/19 00:57:15;;;;;;;8.75;3.33;;;;;;;;;;5074710;28;20622;-46
2022/07/19 00:59:43;;;;;;;7.07;3.47;;;;;;;;;;5075239;28;20225;-46
2022/07/19 01:02:12;;;;;;;8.05;3.75;;;;;;;;;;5074820;28;20203;-46
2022/07/19 01:04:39;;;;;;;6.82;3.38;;;;;;;;;;5074795;28;20214;-47
2022/07/19 01:07:06;;;;;;;6.68;3.38;;;;;;;;;;5074537;28;20199;-46
2022/07/19 01:09:36;;;;;;;6.28;3.22;;;;;;;;;;5075054;28;20524;-48
2022/07/19 01:12:04;;;;;;;9.50;3.42;;;;;;;;;;5073875;28;20206;-47
2022/07/19 01:14:31;;;;;;;3.65;2.55;;;;;;;;;;5073580;28;20230;-46
2022/07/19 01:17:02;;;;;;;5.72;3.45;;;;;;;;;;5074741;28;20526;-47
2022/07/19 01:19:30;;;;;;;8.80;3.08;;;;;;;;;;5074818;28;20207;-47
2022/07/19 01:21:56;;;;;;;5.43;3.55;;;;;;;;;;5074349;28;20261;-47
2022/07/19 01:24:24;;;;;;;4.93;3.70;;;;;;;;;;5074330;28;20218;-46
2022/07/19 01:26:51;;;;;;;9.55;3.65;;;;;;;;;;5074289;28;20214;-47
2022/07/19 01:29:18;;;;;;;10.95;3.10;;;;;;;;;;5074387;28;20211;-46
2022/07/19 01:31:45;;;;;;;8.25;3.63;;;;;;;;;;5074482;28;20203;-46
2022/07/19 01:34:12;;;;;;;5.55;3.22;;;;;;;;;;5074328;28;20561;-47
2022/07/19 01:36:39;;;;;;;4.78;3.47;;;;;;;;;;5073604;28;20195;-46
2022/07/19 01:39:06;;;;;;;4.85;3.40;;;;;;;;;;5074568;28;20196;-46
2022/07/19 01:41:33;;;;;;;7.72;3.67;;;;;;;;;;5074268;28;20210;-47
2022/07/19 01:44:01;;;;;;;8.50;3.50;;;;;;;;;;5075740;28;20206;-46
2022/07/19 01:46:28;;;;;;;5.60;3.35;;;;;;;;;;5078099;28;20211;-47
2022/07/19 01:48:55;;;;;;;10.68;3.42;;;;;;;;;;5078004;28;20652;-47
2022/07/19 01:51:22;;;;;;;6.75;3.35;;;;;;;;;;5077798;28;20199;-48
2022/07/19 01:53:49;;;;;;;10.38;3.63;;;;;;;;;;5078112;28;20227;-46
2022/07/19 01:56:16;;;;;;;5.05;3.35;;;;;;;;;;5078011;28;20235;-46
2022/07/19 01:58:43;;;;;;;10.70;3.60;;;;;;;;;;5077841;28;20196;-47
2022/07/19 02:01:10;;;;;;;5.75;3.33;;;;;;;;;;5077782;28;20214;-45
2022/07/19 02:03:37;;;;;;;9.55;3.47;;;;;;;;;;5077568;28;20306;-47
2022/07/19 02:06:05;;;;;;;6.35;3.95;;;;;;;;;;5077720;28;20226;-46
2022/07/19 02:08:32;;;;;;;7.57;3.78;;;;;;;;;;5077839;28;20263;-46
2022/07/19 02:10:59;;;;;;;10.70;3.83;;;;;;;;;;5077436;28;20695;-46
2022/07/19 02:13:26;;;;;;;6.35;3.60;;;;;;;;;;5077592;28;20203;-47
2022/07/19 02:15:53;;;;;;;6.88;3.63;;;;;;;;;;5077117;28;20210;-46
2022/07/19 02:18:20;;;;;;;7.60;4.15;;;;;;;;;;5077071;28;20199;-47
2022/07/19 02:20:47;;;;;;;6.50;4.20;;;;;;;;;;5077103;28;20546;-47
2022/07/19 02:23:14;;;;;;;8.32;4.50;;;;;;;;;;5077349;28;20284;-49
2022/07/19 02:25:41;;;;;;;15.75;4.82;;;;;;;;;;5077099;28;20222;-46
2022/07/19 02:28:10;;;;;;;8.50;4.90;;;;;;;;;;5076914;28;20691;-48
2022/07/19 02:30:37;;;;;;;6.85;4.22;;;;;;;;;;5076843;28;20332;-48
2022/07/19 02:33:04;;;;;;;12.30;4.55;;;;;;;;;;5076833;28;20618;-46
2022/07/19 02:35:31;;;;;;;6.70;4.65;;;;;;;;;;5076883;28;20371;-47
2022/07/19 02:37:58;;;;;;;7.13;4.25;;;;;;;;;;5076862;28;20223;-46
2022/07/19 02:40:25;;;;;;;8.18;4.05;;;;;;;;;;5076840;28;20199;-46
2022/07/19 02:42:52;;;;;;;6.82;3.80;;;;;;;;;;5091979;28;20199;-46
2022/07/19 02:45:20;;;;;;;8.65;4.30;;;;;;;;;;5076544;28;20261;-46
2022/07/19 02:47:47;;;;;;;6.00;4.15;;;;;;;;;;5076557;28;20673;-46
2022/07/19 02:50:14;;;;;;;10.70;4.28;;;;;;;;;;5076538;28;20209;-47
2022/07/19 02:52:41;;;;;;;7.32;4.15;;;;;;;;;;5076430;28;20547;-46
2022/07/19 02:55:08;;;;;;;8.55;4.07;;;;;;;;;;5075813;28;20231;-46
2022/07/19 02:57:35;;;;;;;7.68;4.50;;;;;;;;;;5076293;28;20226;-46
2022/07/19 03:00:09;;;;;;;7.22;3.80;;;;;;;;;;5076322;28;20207;-46
2022/07/19 03:02:36;;;;;;;6.75;3.55;;;;;;;;;;5076547;28;20199;-47
2022/07/19 03:05:03;;;;;;;6.18;3.60;;;;;;;;;;5076496;28;20207;-46
2022/07/19 03:07:30;;;;;;;4.75;3.40;;;;;;;;;;5076068;28;20199;-46
2022/07/19 03:09:57;;;;;;;6.57;3.50;;;;;;;;;;5076437;28;20203;-46
2022/07/19 03:12:24;;;;;;;5.03;3.63;;;;;;;;;;5075864;28;20537;-50
2022/07/19 03:14:52;;;;;;;8.57;3.67;;;;;;;;;;5061388;28;20227;-46
2022/07/19 03:17:18;;;;;;;7.53;3.53;;;;;;;;;;5074877;28;20218;-46
2022/07/19 03:19:46;;;;;;;6.00;3.10;;;;;;;;;;5076132;28;20199;-46
2022/07/19 03:22:13;;;;;;;4.53;3.33;;;;;;;;;;5075891;28;20218;-46
2022/07/19 03:24:40;;;;;;;6.35;3.47;;;;;;;;;;5074553;28;20211;-46
2022/07/19 03:27:07;;;;;;;9.85;3.90;;;;;;;;;;5075960;28;20223;-46
2022/07/19 03:29:34;;;;;;;6.10;3.85;;;;;;;;;;5076210;28;20199;-46
2022/07/19 03:32:01;;;;;;;7.15;4.10;;;;;;;;;;5075267;28;20199;-47
2022/07/19 03:34:28;;;;;;;5.35;4.00;;;;;;;;;;5075283;28;20223;-47
2022/07/19 03:36:55;;;;;;;6.03;3.72;;;;;;;;;;5075968;28;20215;-47
2022/07/19 03:39:22;;;;;;;7.20;3.88;;;;;;;;;;5075695;28;20655;-46
2022/07/19 03:41:49;;;;;;;5.38;3.55;;;;;;;;;;5076420;28;20203;-47
2022/07/19 03:44:22;;;;;;;6.20;3.30;;;;;;;;;;5076039;28;20272;-46
2022/07/19 03:46:49;;;;;;;4.68;3.42;;;;;;;;;;5075948;28;20203;-46
2022/07/19 03:49:16;;;;;;;4.40;3.58;;;;;;;;;;5075487;28;20214;-45
2022/07/19 03:51:44;;;;;;;4.80;3.55;;;;;;;;;;5075690;28;20211;-47
2022/07/19 03:54:11;;;;;;;6.28;4.03;;;;;;;;;;5075382;28;20289;-46
2022/07/19 03:56:38;;;;;;;6.47;3.50;;;;;;;;;;5075845;28;20227;-46
2022/07/19 03:59:05;;;;;;;7.88;3.28;;;;;;;;;;5075488;28;20203;-46
2022/07/19 04:01:32;;;;;;;7.15;3.50;;;;;;;;;;5075313;28;20203;-47
2022/07/19 04:03:59;;;;;;;5.78;3.50;;;;;;;;;;5075517;28;20208;-48
2022/07/19 04:06:27;;;;;;;4.78;3.40;;;;;;;;;;5070761;28;20238;-47
2022/07/19 04:08:54;;;;;;;6.70;3.55;;;;;;;;;;5076033;28;20223;-46
2022/07/19 04:11:21;;;;;;;8.35;3.30;;;;;;;;;;5066871;28;20666;-46
2022/07/19 04:13:48;;;;;;;7.18;3.20;;;;;;;;;;5065970;28;20304;-49
2022/07/19 04:16:16;;;;;;;7.32;3.88;;;;;;;;;;5074019;28;20590;-47
2022/07/19 04:18:43;;;;;;;6.45;3.75;;;;;;;;;;5069144;28;20231;-46
2022/07/19 04:21:10;;;;;;;8.52;3.85;;;;;;;;;;5073502;28;20588;-46
2022/07/19 04:23:37;;;;;;;5.13;3.67;;;;;;;;;;5074454;28;20235;-46
2022/07/19 04:26:04;;;;;;;5.20;3.53;;;;;;;;;;5074259;28;20776;-46
2022/07/19 04:28:31;;;;;;;7.55;4.10;;;;;;;;;;5068652;28;20232;-46
2022/07/19 04:30:58;;;;;;;7.13;3.47;;;;;;;;;;5054632;28;20219;-47
2022/07/19 04:33:26;;;;;;;8.07;3.67;;;;;;;;;;5082044;28;20306;-46
2022/07/19 04:35:53;;;;;;;5.75;3.55;;;;;;;;;;5093462;28;20242;-45
2022/07/19 04:38:21;;;;;;;6.05;3.63;;;;;;;;;;5086322;28;20524;-46
2022/07/19 04:40:48;;;;;;;7.45;4.20;;;;;;;;;;5093884;28;20668;-46
2022/07/19 04:43:21;;;;;;;5.07;3.58;;;;;;;;;;5093894;28;20225;-46
2022/07/19 04:45:48;;;;;;;6.28;3.70;;;;;;;;;;5090630;28;20215;-48
2022/07/19 04:48:15;;;;;;;6.70;3.70;;;;;;;;;;5090332;28;20250;-47
2022/07/19 04:50:42;;;;;;;8.77;4.30;;;;;;;;;;5090732;28;20234;-45
2022/07/19 04:53:09;;;;;;;8.95;4.00;;;;;;;;;;5075156;28;20262;-47
2022/07/19 04:55:37;;;;;;;5.50;3.83;;;;;;;;;;5073865;28;20271;-46
2022/07/19 04:58:05;;;;;;;11.63;4.38;;;;;;;;;;5073293;28;20227;-46
2022/07/19 05:00:32;;;;;;;7.20;3.50;;;;;;;;;;5072742;28;20228;-46
2022/07/19 05:02:59;;;;;;;8.02;4.22;;;;;;;;;;5072841;28;20528;-46
2022/07/19 05:05:26;;;;;;;6.97;4.20;;;;;;;;;;5073108;28;20238;-47
2022/07/19 05:07:53;;;;;;;6.53;3.95;;;;;;;;;;5071354;28;20231;-47
2022/07/19 05:10:20;;;;;;;8.15;3.42;;;;;;;;;;5088127;28;20237;-47
2022/07/19 05:12:47;;;;;;;6.03;4.03;;;;;;;;;;5093268;27;20233;-46
2022/07/19 05:15:14;;;;;;;6.18;3.55;;;;;;;;;;5094438;28;20218;-46
2022/07/19 05:17:42;;;;;;;4.00;3.45;;;;;;;;;;5111111;28;20645;-46
2022/07/19 05:20:10;;;;;;;5.95;3.80;;;;;;;;;;5099139;28;20221;-46
2022/07/19 05:22:37;;;;;;;5.13;3.90;;;;;;;;;;5098909;28;20540;-47
2022/07/19 05:25:10;;;;;;;6.28;3.72;;;;;;;;;;5098864;28;20230;-46
2022/07/19 05:27:37;;;;;;;10.13;3.75;;;;;;;;;;5098752;28;20206;-46
2022/07/19 05:30:05;;;;;;;6.65;3.65;;;;;;;;;;5098788;28;20292;-46
2022/07/19 05:32:32;;;;;;;7.97;3.83;;;;;;;;;;5099305;28;20207;-46
2022/07/19 05:34:59;;;;;;;6.72;3.67;;;;;;;;;;5099042;28;20226;-47
2022/07/19 05:37:26;;;;;;;5.00;3.80;;;;;;;;;;5098465;28;20228;-46
2022/07/19 05:39:53;;;;;;;5.95;3.80;;;;;;;;;;5098373;28;20637;-46
2022/07/19 05:42:20;;;;;;;5.55;3.35;;;;;;;;;;5098537;28;20213;-46
2022/07/19 05:44:47;;;;;;;7.00;4.00;;;;;;;;;;5098268;28;20207;-46
2022/07/19 05:47:15;;;;;;;4.55;3.70;;;;;;;;;;5098579;28;20214;-46
2022/07/19 05:49:43;;;;;;;9.15;4.30;;;;;;;;;;5098460;28;20323;-46
2022/07/19 05:52:10;;;;;;;7.35;4.47;;;;;;;;;;5098197;28;20281;-49
2022/07/19 05:54:37;;;;;;;6.40;4.47;;;;;;;;;;5097763;28;20294;-46
2022/07/19 05:57:04;;;;;;;8.65;4.47;;;;;;;;;;5098283;28;20207;-46
2022/07/19 05:59:35;;;;;;;11.85;4.47;;;;;;;;;;5098387;28;20214;-46
2022/07/19 06:02:03;;;;;;;9.25;4.68;;;;;;;;;;5098391;28;20217;-46
2022/07/19 06:04:30;;;;;;;6.15;4.47;;;;;;;;;;5097162;28;20206;-46
2022/07/19 06:06:57;;;;;;;5.90;4.30;;;;;;;;;;5098146;28;20256;-46
2022/07/19 06:09:24;;;;;;;7.90;4.18;;;;;;;;;;5097736;28;20279;-46
2022/07/19 06:11:52;;;;;;;7.40;4.80;;;;;;;;;;5098002;28;20206;-46
2022/07/19 06:14:19;;;;;;;8.00;4.32;;;;;;;;;;5097958;28;20293;-46
2022/07/19 06:16:46;;;;;;;7.00;4.35;;;;;;;;;;5097596;28;20291;-46
2022/07/19 06:19:14;;;;;;;8.43;4.85;;;;;;;;;;5097863;28;20202;-46
2022/07/19 06:21:41;;;;;;;7.97;4.00;;;;;;;;;;5097808;28;20194;-48
2022/07/19 06:24:08;;;;;;;7.90;4.50;;;;;;;;;;5097811;28;20676;-46
2022/07/19 06:26:35;;;;;;;8.07;4.60;;;;;;;;;;5097433;28;20747;-46
2022/07/19 06:29:02;;;;;;;8.50;4.45;;;;;;;;;;5096846;28;20595;-47
2022/07/19 06:31:30;;;;;;;8.52;4.53;;;;;;;;;;5097923;28;20210;-47
2022/07/19 06:33:58;;;;;;;10.55;4.57;;;;;;;;;;5097249;28;20195;-46
2022/07/19 06:36:25;;;;;;;9.07;5.07;;;;;;;;;;5097388;28;20316;-46
2022/07/19 06:38:51;;;;;;;5.50;4.10;;;;;;;;;;5097467;28;20221;-47
2022/07/19 06:41:19;;;;;;;10.95;5.00;;;;;;;;;;5097577;28;20198;-46
2022/07/19 06:43:49;;;;;;;5.95;4.53;;;;;;;;;;5097662;28;20287;-46
2022/07/19 06:46:16;;;;;;;10.40;5.47;;;;;;;;;;5097566;28;20202;-46
2022/07/19 06:48:44;;;;;;;8.68;5.57;;;;;;;;;;5097047;28;20206;-47
2022/07/19 06:51:11;;;;;;;6.72;4.97;;;;;;;;;;5097258;28;20199;-46
2022/07/19 06:53:38;;;;;;;9.05;5.85;;;;;;;;;;5064680;28;20227;-46
2022/07/19 06:56:05;;;;;;;10.18;6.40;;;;;;;;;;5055806;28;20298;-46
2022/07/19 06:58:32;;;;;;;9.88;6.75;;;;;;;;;;5055399;28;20224;-47
2022/07/19 07:01:07;;;;;;;9.98;6.30;;;;;;;;;;5055773;28;20234;-48
2022/07/19 07:03:35;;;;;;;10.48;6.40;;;;;;;;;;5055232;28;20588;-46
2022/07/19 07:06:03;;;;;;;11.13;6.30;;;;;;;;;;5055959;28;20224;-46
2022/07/19 07:08:30;;;;;;;13.13;7.57;;;;;;;;;;5055151;28;20341;-47
2022/07/19 07:10:57;;;;;;;11.75;7.25;;;;;;;;;;5055881;28;20251;-48
2022/07/19 07:13:24;;;;;;;11.75;7.60;;;;;;;;;;5064577;28;20219;-48
2022/07/19 07:15:52;;;;;;;14.68;8.18;;;;;;;;;;5075710;28;20223;-48
2022/07/19 07:18:19;;;;;;;13.50;7.43;;;;;;;;;;5077166;28;20204;-49
2022/07/19 07:20:46;;;;;;;14.48;7.85;;;;;;;;;;5076025;28;20199;-49
2022/07/19 07:23:13;;;;;;;11.07;7.10;;;;;;;;;;5076163;28;20215;-48
2022/07/19 07:25:40;;;;;;;14.98;8.48;;;;;;;;;;5076216;28;20283;-49
2022/07/19 07:28:07;;;;;;;11.95;7.38;;;;;;;;;;5075777;28;20529;-49
2022/07/19 07:30:34;;;;;;;13.85;8.00;;;;;;;;;;5072980;28;20199;-49
2022/07/19 07:33:02;;;;;;;20.17;8.35;;;;;;;;;;5076706;28;20206;-48
2022/07/19 07:35:28;;;;;;;15.02;7.93;;;;;;;;;;5075872;28;20235;-49
2022/07/19 07:37:56;;;;;;;15.75;8.55;;;;;;;;;;5076058;28;20203;-49
2022/07/19 07:40:23;;;;;;;12.93;7.75;;;;;;;;;;5075892;28;20222;-49
2022/07/19 07:42:49;;;;;;;12.55;7.55;;;;;;;;;;5074450;28;20203;-49
2022/07/19 07:45:17;;;;;;;11.75;7.03;;;;;;;;;;5074883;28;20529;-49
2022/07/19 07:47:44;;;;;;;14.02;7.78;;;;;;;;;;5075464;28;20211;-52
2022/07/19 07:50:11;;;;;;;11.52;7.55;;;;;;;;;;5075496;28;20200;-49
2022/07/19 07:52:38;;;;;;;12.98;7.18;;;;;;;;;;5075761;28;20214;-49
2022/07/19 07:55:06;;;;;;;12.40;7.40;;;;;;;;;;5075295;28;20593;-51
2022/07/19 07:57:53;;;;;;;9.82;6.78;;;;;;;;;;5075635;28;20230;-49
2022/07/19 08:00:21;;;;;;;13.80;7.28;;;;;;;;;;5075649;28;20223;-48
2022/07/19 08:02:49;;;;;;;9.38;6.93;;;;;;;;;;5075206;28;20621;-48
2022/07/19 08:05:21;;;;;;;10.25;6.72;;;;;;;;;;5075218;28;20222;-48
2022/07/19 08:07:49;;;;;;;13.50;6.75;;;;;;;;;;5075490;28;20187;-50
2022/07/19 08:10:20;;;;;;;8.50;5.88;;;;;;;;;;5075463;28;20192;-50
2022/07/19 08:12:47;;;;;;;10.45;6.13;;;;;;;;;;5074967;28;20203;-46
2022/07/19 08:15:14;;;;;;;8.25;5.57;;;;;;;;;;5075021;28;20626;-46
2022/07/19 08:17:42;;;;;;;9.77;5.90;;;;;;;;;;5075118;28;20240;-46
2022/07/19 08:20:09;;;;;;;7.53;5.40;;;;;;;;;;5075483;28;20253;-48
2022/07/19 08:22:37;;;;;;;9.13;5.68;;;;;;;;;;5073822;28;20206;-46
2022/07/19 08:25:05;;;;;;;12.88;5.68;;;;;;;;;;5051594;28;20226;-48
2022/07/19 08:27:33;;;;;;;12.10;6.00;;;;;;;;;;5075027;28;20234;-48
2022/07/19 08:30:01;;;;;;;11.57;6.38;;;;;;;;;;5083287;28;20246;-52
2022/07/19 08:32:35;;;;;;;8.73;6.00;;;;;;;;;;5075806;28;20222;-46
2022/07/19 08:35:04;;;;;;;10.70;6.22;;;;;;;;;;5074168;28;20243;-46
2022/07/19 08:37:31;;;;;;;8.68;5.65;;;;;;;;;;5074172;28;20243;-46
2022/07/19 08:39:58;;;;;;;12.05;5.93;;;;;;;;;;5073934;28;20231;-49
2022/07/19 08:42:25;;;;;;;10.65;5.43;;;;;;;;;;5080902;28;20231;-48
2022/07/19 08:45:07;;;;;;;9.40;5.82;;;;;;;;;;5077058;28;20234;-47
2022/07/19 08:47:35;;;;;;;9.75;5.82;;;;;;;;;;5073750;28;20223;-46
2022/07/19 08:50:05;;;;;;;7.65;5.47;;;;;;;;;;5078006;28;20215;-47
2022/07/19 08:52:33;;;;;;;6.72;4.78;;;;;;;;;;5075868;28;20218;-50
2022/07/19 08:55:00;;;;;;;10.52;5.68;;;;;;;;;;5080857;28;20235;-46
2022/07/19 09:00:13;;;;;;;9.32;5.18;;;;;;;;;;5074487;28;20360;-46
2022/07/19 09:02:52;;;;;;;10.30;5.00;;;;;;;;;;5073629;28;20220;-46
2022/07/19 09:05:20;;;;;;;9.82;5.00;;;;;;;;;;5073717;28;20322;-46
2022/07/19 09:08:09;;;;;;;9.10;5.30;;;;;;;;;;5073838;28;20242;-48
2022/07/19 09:10:42;;;;;;;9.60;4.72;;;;;;;;;;5053147;28;20231;-49
2022/07/19 09:13:12;;;;;;;10.85;4.70;;;;;;;;;;5086395;28;20231;-46
2022/07/19 09:15:44;;;;;;;9.18;4.75;;;;;;;;;;5067743;28;20222;-48
2022/07/19 09:18:16;;;;;;;7.35;4.70;;;;;;;;;;5085216;28;20211;-46
2022/07/19 09:20:44;;;;;;;8.07;4.55;;;;;;;;;;5091336;28;20219;-46
2022/07/19 09:23:12;;;;;;;7.28;4.00;;;;;;;;;;5075442;28;20257;-50
2022/07/19 09:25:46;;;;;;;6.60;4.70;;;;;;;;;;5091785;28;20210;-50
2022/07/19 09:28:13;;;;;;;6.38;4.43;;;;;;;;;;5073659;28;20187;-48
2022/07/19 09:30:46;;;;;;;8.27;4.18;;;;;;;;;;5067781;28;20231;-47
2022/07/19 09:33:19;;;;;;;8.45;3.47;;;;;;;;;;5077645;28;20226;-48
2022/07/19 09:35:50;;;;;;;9.75;3.92;;;;;;;;;;5076722;28;20239;-48
2022/07/19 09:38:28;;;;;;;6.13;3.78;;;;;;;;;;5086819;28;20231;-53
2022/07/19 09:41:17;;;;;;;7.07;3.90;;;;;;;;;;5072948;28;20284;-49
2022/07/19 09:44:06;;;;;;;4.97;3.20;;;;;;;;;;5052928;28;20228;-49
2022/07/19 09:46:38;;;;;;;6.03;3.65;;;;;;;;;;5053686;28;20248;-48
2022/07/19 09:49:13;;;;;;;5.97;3.50;;;;;;;;;;5054169;28;20197;-50
2022/07/19 09:51:48;;;;;;;7.13;3.30;;;;;;;;;;5086370;28;20564;-50
2022/07/19 09:54:19;;;;;;;8.00;3.58;;;;;;;;;;5054245;28;20559;-49
2022/07/19 09:56:49;;;;;;;7.63;2.97;;;;;;;;;;5054328;28;20244;-47
2022/07/19 09:59:17;;;;;;;5.68;3.00;;;;;;;;;;5053829;28;20257;-48
2022/07/19 10:01:48;;;;;;;5.22;3.28;;;;;;;;;;5053273;28;20211;-48
2022/07/19 10:04:18;;;;;;;4.15;2.70;;;;;;;;;;5054209;28;20254;-47
2022/07/19 10:06:47;;;;;;;6.82;2.97;;;;;;;;;;5057742;28;20196;-47
2022/07/19 10:09:16;;;;;;;8.20;3.47;;;;;;;;;;5057354;28;20204;-48
2022/07/19 10:11:44;;;;;;;6.68;3.08;;;;;;;;;;5069167;28;20191;-46
2022/07/19 10:14:14;;;;;;;6.68;3.33;;;;;;;;;;5084084;28;20203;-48
2022/07/19 10:16:51;;;;;;;6.47;3.30;;;;;;;;;;5073873;28;20220;-46
2022/07/19 10:19:26;;;;;;;6.13;3.08;;;;;;;;;;5075276;28;20187;-46
2022/07/19 10:21:54;;;;;;;7.70;2.88;;;;;;;;;;5075593;28;20199;-47
2022/07/19 10:25:00;;;;;;;7.15;3.38;;;;;;;;;;5070116;28;20199;-47
2022/07/19 10:27:27;;;;;;;6.15;3.00;;;;;;;;;;5074311;28;20195;-48
2022/07/19 10:29:57;;;;;;;4.93;3.05;;;;;;;;;;5076226;28;20237;-49
2022/07/19 10:32:31;;;;;;;5.80;3.25;;;;;;;;;;5076140;28;20199;-47
2022/07/19 10:35:19;;;;;;;8.70;3.28;;;;;;;;;;5076040;28;20199;-48
2022/07/19 10:38:13;;;;;;;5.78;2.83;;;;;;;;;;5075990;28;20314;-49
2022/07/19 10:40:56;;;;;;;6.85;3.22;;;;;;;;;;5076268;28;20210;-47
2022/07/19 10:43:27;;;;;;;6.97;3.35;;;;;;;;;;5075594;28;20301;-48
2022/07/19 10:46:01;;;;;;;5.90;2.92;;;;;;;;;;5075572;28;20226;-46
2022/07/19 10:48:48;;;;;;;4.80;2.80;;;;;;;;;;5075595;28;20206;-49
2022/07/19 10:51:28;;;;;;;3.90;2.60;;;;;;;;;;5075194;28;20195;-48
2022/07/19 10:54:05;;;;;;;4.30;2.65;;;;;;;;;;5068456;28;20203;-47
2022/07/19 10:56:38;;;;;;;5.72;2.70;;;;;;;;;;5074673;28;20615;-51
2022/07/19 10:59:39;;;;;;;6.07;3.00;;;;;;;;;;5074480;28;20218;-50
2022/07/19 11:02:07;;;;;;;7.45;2.70;;;;;;;;;;5073220;28;20223;-47
2022/07/19 11:04:56;;;;;;;4.68;2.35;;;;;;;;;;5072573;28;20681;-47
2022/07/19 11:07:24;;;;;;;5.70;2.53;;;;;;;;;;5072157;28;20227;-44
2022/07/19 11:09:57;;;;;;;3.50;2.40;;;;;;;;;;5073853;28;20235;-44
2022/07/19 11:12:29;;;;;;;4.63;2.67;;;;;;;;;;5074939;28;20227;-44
2022/07/19 11:14:59;;;;;;;8.25;3.00;;;;;;;;;;5077825;28;20280;-47
2022/07/19 11:17:53;;;;;;;5.53;2.50;;;;;;;;;;5095467;28;20241;-49
2022/07/19 11:20:23;;;;;;;4.57;2.50;;;;;;;;;;5095896;28;20222;-46
2022/07/19 11:22:51;;;;;;;4.57;2.80;;;;;;;;;;5095301;28;20288;-49
2022/07/19 11:25:28;;;;;;;7.60;2.92;;;;;;;;;;5095516;28;20229;-46
2022/07/19 11:27:56;;;;;;;5.45;2.65;;;;;;;;;;5095666;28;20230;-48
2022/07/19 11:30:24;;;;;;;5.15;2.55;;;;;;;;;;5082175;28;20211;-49
2022/07/19 11:32:58;;;;;;;5.95;2.72;;;;;;;;;;5077138;28;20703;-48
2022/07/19 11:35:25;;;;;;;4.72;2.67;;;;;;;;;;5076201;28;20199;-52
2022/07/19 11:37:54;;;;;;;7.38;2.70;;;;;;;;;;5075851;28;20230;-47
2022/07/19 11:40:23;;;;;;;5.82;2.50;;;;;;;;;;5075998;28;20257;-46
2022/07/19 11:42:51;;;;;;;5.70;2.80;;;;;;;;;;5075993;28;20230;-47
2022/07/19 11:45:47;;;;;;;3.90;2.58;;;;;;;;;;5075720;28;20565;-47
2022/07/19 11:48:25;;;;;;;4.90;2.90;;;;;;;;;;5075819;28;20195;-46
2022/07/19 11:51:09;;;;;;;6.05;2.60;;;;;;;;;;5075766;28;20204;-47
2022/07/19 11:53:38;;;;;;;6.45;2.90;;;;;;;;;;5075398;28;20504;-48
2022/07/19 11:56:16;;;;;;;5.07;2.72;;;;;;;;;;5075671;28;20219;-47
2022/07/19 11:58:43;;;;;;;3.90;2.70;;;;;;;;;;5075200;28;20630;-46
2022/07/19 12:01:11;;;;;;;5.05;2.90;;;;;;;;;;5075590;28;20209;-46
2022/07/19 12:03:38;;;;;;;4.55;2.60;;;;;;;;;;5075113;28;20630;-48
2022/07/19 12:06:08;;;;;;;7.10;2.75;;;;;;;;;;5075147;28;20206;-46
2022/07/19 12:08:44;;;;;;;5.43;2.95;;;;;;;;;;5075297;28;20268;-48
2022/07/19 12:11:24;;;;;;;9.63;2.78;;;;;;;;;;5075560;28;20513;-47
2022/07/19 12:13:52;;;;;;;7.32;2.80;;;;;;;;;;5075031;28;20622;-47
2022/07/19 12:16:20;;;;;;;8.88;2.90;;;;;;;;;;5074925;28;20216;-47
2022/07/19 12:18:56;;;;;;;7.85;3.00;;;;;;;;;;5074641;28;20199;-47
2022/07/19 12:21:40;;;;;;;5.20;2.85;;;;;;;;;;5075331;28;20233;-46
2022/07/19 12:24:21;;;;;;;4.57;3.08;;;;;;;;;;5075418;28;20566;-48
2022/07/19 12:26:51;;;;;;;6.40;3.72;;;;;;;;;;5074312;28;20191;-46
2022/07/19 12:29:40;;;;;;;5.50;3.10;;;;;;;;;;5082330;28;20191;-44
2022/07/19 12:32:10;;;;;;;8.77;3.35;;;;;;;;;;5079394;28;20200;-46
2022/07/19 12:34:49;;;;;;;8.65;3.40;;;;;;;;;;5075437;28;20225;-44
2022/07/19 12:37:34;;;;;;;5.47;3.85;;;;;;;;;;5094244;28;20249;-44
2022/07/19 12:40:14;;;;;;;8.48;3.63;;;;;;;;;;5091018;28;20230;-44
2022/07/19 12:42:59;;;;;;;9.60;3.30;;;;;;;;;;5070825;28;20265;-43
2022/07/19 12:45:30;;;;;;;10.10;4.25;;;;;;;;;;5061849;28;20539;-44
2022/07/19 12:47:58;;;;;;;6.07;3.40;;;;;;;;;;5075891;28;20230;-45
2022/07/19 12:50:35;;;;;;;5.72;3.45;;;;;;;;;;5082520;28;20214;-47
2022/07/19 12:53:04;;;;;;;8.60;3.38;;;;;;;;;;5081749;28;20222;-45
2022/07/19 12:55:33;;;;;;;7.40;3.10;;;;;;;;;;5067603;28;20241;-44
2022/07/19 12:58:03;;;;;;;9.80;4.65;;;;;;;;;;5075252;28;20681;-43
2022/07/19 13:00:31;;;;;;;12.68;6.00;;;;;;;;;;5072854;28;20227;-46
2022/07/19 13:02:59;;;;;;;32.80;13.27;;;;;;;;;;5073234;28;20253;-44
2022/07/19 13:05:27;;;;;;;16.05;6.43;;;;;;;;;;5073766;28;20230;-49
2022/07/19 13:07:55;;;;;;;17.90;7.93;;;;;;;;;;5070753;28;20235;-47
2022/07/19 13:10:23;;;;;;;21.13;9.90;;;;;;;;;;5078453;28;20317;-47
2022/07/19 13:12:50;;;;;;;9.25;3.60;;;;;;;;;;5092973;28;20589;-47
2022/07/19 13:15:18;;;;;;;8.88;3.83;;;;;;;;;;5093366;28;20227;-47
2022/07/19 13:17:45;;;;;;;13.13;6.20;;;;;;;;;;5093052;28;20234;-47
2022/07/19 13:20:12;;;;;;;12.85;5.45;;;;;;;;;;5092414;28;20233;-47
2022/07/19 13:22:41;;;;;;;10.55;4.10;;;;;;;;;;5093161;28;20226;-49
2022/07/19 13:25:10;;;;;;;6.28;2.70;;;;;;;;;;5093551;28;20652;-50
2022/07/19 13:27:57;;;;;;;7.50;2.97;;;;;;;;;;5094010;28;20235;-46
2022/07/19 13:30:24;;;;;;;10.73;2.92;;;;;;;;;;5093463;28;20233;-47
2022/07/19 13:32:51;;;;;;;23.35;11.30;;;;;;;;;;5093043;28;20238;-47
2022/07/19 13:35:19;;;;;;;12.02;5.90;;;;;;;;;;5093520;28;20219;-48
2022/07/19 13:37:48;;;;;;;25.65;10.77;;;;;;;;;;5093738;28;20267;-47
2022/07/19 13:40:15;;;;;;;4.65;3.22;;;;;;;;;;5097347;28;20317;-46
2022/07/19 13:42:42;;;;;;;6.10;3.03;;;;;;;;;;5088127;28;20227;-46
2022/07/19 13:45:10;;;;;;;4.43;2.40;;;;;;;;;;5077038;28;20215;-46
2022/07/19 13:47:39;;;;;;;5.88;2.25;;;;;;;;;;5076631;28;20666;-47
2022/07/19 13:50:08;;;;;;;4.28;2.50;;;;;;;;;;5077026;28;20224;-47
2022/07/19 13:52:35;;;;;;;4.07;2.58;;;;;;;;;;5077375;28;20284;-47
2022/07/19 13:55:03;;;;;;;4.20;2.35;;;;;;;;;;5076633;28;20235;-47
2022/07/19 13:57:30;;;;;;;4.47;2.50;;;;;;;;;;5077198;28;20239;-49
2022/07/19 13:59:57;;;;;;;5.85;2.60;;;;;;;;;;5076737;28;20250;-44
2022/07/19 14:02:24;;;;;;;4.93;2.35;;;;;;;;;;5083774;28;20260;-44
2022/07/19 14:04:52;;;;;;;5.05;2.10;;;;;;;;;;5081456;28;20223;-45
2022/07/19 14:07:19;;;;;;;4.85;2.20;;;;;;;;;;5086582;28;20668;-45
2022/07/19 14:09:46;;;;;;;5.60;2.67;;;;;;;;;;5084959;28;20226;-44
2022/07/19 14:12:13;;;;;;;6.93;2.40;;;;;;;;;;5084549;28;20218;-46
2022/07/19 14:14:40;;;;;;;4.78;2.47;;;;;;;;;;5081976;28;20215;-44
2022/07/19 14:17:07;;;;;;;6.82;2.17;;;;;;;;;;5084891;28;20230;-45
2022/07/19 14:19:37;;;;;;;7.68;2.72;;;;;;;;;;5086335;28;20572;-46
2022/07/19 14:22:05;;;;;;;17.15;3.15;;;;;;;;;;5085567;28;20214;-45
2022/07/19 14:24:32;;;;;;;6.30;2.33;;;;;;;;;;5085629;28;20272;-45
2022/07/19 14:27:00;;;;;;;4.10;2.35;;;;;;;;;;5087055;28;20215;-46
2022/07/19 14:29:27;;;;;;;5.85;2.15;;;;;;;;;;5083999;28;20199;-46
2022/07/19 14:31:54;;;;;;;7.25;2.75;;;;;;;;;;5072081;28;20223;-45
2022/07/19 14:34:22;;;;;;;7.10;2.78;;;;;;;;;;5075948;28;20230;-45
2022/07/19 14:37:03;;;;;;;7.05;2.60;;;;;;;;;;5076115;28;20712;-46
2022/07/19 14:39:31;;;;;;;4.75;2.45;;;;;;;;;;5075935;28;20230;-46
2022/07/19 14:42:00;;;;;;;10.98;2.65;;;;;;;;;;5075776;28;20219;-46
2022/07/19 14:44:27;;;;;;;6.80;2.85;;;;;;;;;;5076329;28;20215;-47
2022/07/19 14:46:57;;;;;;;3.90;2.45;;;;;;;;;;5075927;28;20231;-48
2022/07/19 14:49:24;;;;;;;5.05;2.55;;;;;;;;;;5076583;28;20314;-47
2022/07/19 14:51:52;;;;;;;6.35;2.65;;;;;;;;;;5075344;28;20560;-45
2022/07/19 14:54:19;;;;;;;4.97;2.40;;;;;;;;;;5076087;28;20231;-45
2022/07/19 14:56:51;;;;;;;4.70;2.35;;;;;;;;;;5075616;28;20247;-47